createdAt,value
2017-04-23T00:00:18.535Z,4.00
2017-04-23T00:01:18.087Z,4.00
2017-04-23T00:02:17.688Z,4.00
2017-04-23T00:03:16.955Z,4.00
2017-04-23T00:04:16.964Z,4.00
2017-04-23T00:06:16.359Z,4.00
2017-04-23T00:07:16.287Z,4.10
2017-04-23T00:08:15.540Z,4.00
2017-04-23T00:09:15.336Z,4.00
2017-04-23T00:10:14.597Z,4.00
2017-04-23T00:11:13.855Z,4.00
2017-04-23T00:12:13.475Z,4.10
2017-04-23T00:13:12.726Z,4.10
2017-04-23T00:14:11.987Z,4.10
2017-04-23T00:15:11.266Z,4.10
2017-04-23T00:16:10.506Z,4.10
2017-04-23T00:17:09.761Z,4.20
2017-04-23T00:18:09.052Z,4.20
2017-04-23T00:19:08.297Z,4.20
2017-04-23T00:20:08.280Z,4.20
2017-04-23T00:21:07.544Z,4.20
2017-04-23T00:22:06.788Z,4.20
2017-04-23T00:23:06.031Z,4.30
2017-04-23T00:24:05.324Z,4.30
2017-04-23T00:25:04.580Z,4.30
2017-04-23T00:26:04.207Z,4.30
2017-04-23T00:27:03.511Z,4.30
2017-04-23T00:28:02.755Z,4.20
2017-04-23T00:29:02.012Z,4.20
2017-04-23T00:30:01.631Z,4.20
2017-04-23T00:31:02.264Z,4.10
2017-04-23T00:32:01.911Z,4.10
2017-04-23T00:33:01.780Z,4.10
2017-04-23T00:34:01.698Z,4.10
2017-04-23T00:35:01.318Z,4.10
2017-04-23T00:36:00.584Z,4.20
2017-04-23T00:36:59.826Z,4.20
2017-04-23T00:37:59.058Z,4.20
2017-04-23T00:38:58.304Z,4.20
2017-04-23T00:39:58.623Z,4.20
2017-04-23T00:40:58.984Z,4.10
2017-04-23T00:41:58.224Z,4.20
2017-04-23T00:42:58.271Z,4.10
2017-04-23T00:43:57.555Z,4.20
2017-04-23T00:44:56.856Z,4.20
2017-04-23T00:45:56.400Z,4.20
2017-04-23T00:46:55.673Z,4.20
2017-04-23T00:47:54.979Z,4.20
2017-04-23T00:48:54.592Z,4.20
2017-04-23T00:49:53.893Z,4.20
2017-04-23T00:50:53.146Z,4.30
2017-04-23T00:51:53.315Z,4.30
2017-04-23T00:52:52.932Z,4.30
2017-04-23T00:53:52.193Z,4.30
2017-04-23T00:54:51.448Z,4.40
2017-04-23T00:55:50.692Z,4.40
2017-04-23T00:56:50.043Z,4.40
2017-04-23T00:57:50.095Z,4.40
2017-04-23T00:58:49.712Z,4.40
2017-04-23T00:59:49.263Z,4.40
2017-04-23T01:00:48.511Z,4.40
2017-04-23T01:01:48.143Z,4.40
2017-04-23T01:02:48.420Z,4.40
2017-04-23T01:03:47.665Z,4.40
2017-04-23T01:04:47.004Z,4.50
2017-04-23T01:05:46.607Z,4.50
2017-04-23T01:06:45.876Z,4.40
2017-04-23T01:07:45.483Z,4.40
2017-04-23T01:08:44.833Z,4.50
2017-04-23T01:09:44.088Z,4.50
2017-04-23T01:10:44.107Z,4.40
2017-04-23T01:11:44.099Z,4.40
2017-04-23T01:12:43.353Z,4.40
2017-04-23T01:13:42.605Z,4.40
2017-04-23T01:14:41.868Z,4.30
2017-04-23T01:15:41.130Z,4.30
2017-04-23T01:16:40.416Z,4.30
2017-04-23T01:17:40.300Z,4.30
2017-04-23T01:18:39.844Z,4.30
2017-04-23T01:19:39.120Z,4.30
2017-04-23T01:20:38.368Z,4.30
2017-04-23T01:21:37.613Z,4.20
2017-04-23T01:22:36.891Z,4.20
2017-04-23T01:23:36.127Z,4.20
2017-04-23T01:24:35.379Z,4.10
2017-04-23T01:25:34.638Z,4.10
2017-04-23T01:26:33.884Z,4.10
2017-04-23T01:27:34.244Z,4.10
2017-04-23T01:28:33.517Z,4.10
2017-04-23T01:29:32.767Z,4.00
2017-04-23T01:30:33.102Z,4.00
2017-04-23T01:31:32.368Z,4.00
2017-04-23T01:32:31.627Z,4.00
2017-04-23T01:33:30.876Z,4.00
2017-04-23T01:34:30.184Z,4.00
2017-04-23T01:35:29.459Z,4.00
2017-04-23T01:36:28.704Z,4.00
2017-04-23T01:37:28.571Z,4.10
2017-04-23T01:38:28.065Z,4.00
2017-04-23T01:39:27.306Z,4.00
2017-04-23T01:40:28.010Z,4.00
2017-04-23T01:41:27.984Z,4.00
2017-04-23T01:42:27.228Z,4.00
2017-04-23T01:43:27.221Z,4.00
2017-04-23T01:44:26.529Z,4.00
2017-04-23T01:45:26.927Z,4.00
2017-04-23T01:46:26.480Z,4.00
2017-04-23T01:47:26.083Z,3.90
2017-04-23T01:48:25.329Z,3.90
2017-04-23T01:49:25.664Z,3.90
2017-04-23T01:50:24.913Z,3.90
2017-04-23T01:51:24.192Z,3.90
2017-04-23T01:52:23.656Z,3.90
2017-04-23T01:53:23.568Z,3.90
2017-04-23T01:54:23.152Z,3.90
2017-04-23T01:55:22.403Z,3.90
2017-04-23T01:56:21.883Z,3.90
2017-04-23T01:57:21.159Z,3.90
2017-04-23T01:58:20.412Z,3.90
2017-04-23T01:59:19.999Z,3.90
2017-04-23T02:00:19.248Z,3.80
2017-04-23T02:01:18.496Z,3.80
2017-04-23T02:02:18.383Z,3.80
2017-04-23T02:03:18.379Z,3.80
2017-04-23T02:04:17.627Z,3.80
2017-04-23T02:05:16.881Z,3.80
2017-04-23T02:06:16.506Z,3.80
2017-04-23T02:07:16.104Z,3.80
2017-04-23T02:08:15.380Z,3.80
2017-04-23T02:09:15.008Z,3.80
2017-04-23T02:10:14.595Z,3.90
2017-04-23T02:11:14.583Z,3.90
2017-04-23T02:12:13.823Z,3.90
2017-04-23T02:13:13.813Z,3.90
2017-04-23T02:14:13.040Z,3.90
2017-04-23T02:15:13.400Z,3.90
2017-04-23T02:16:12.652Z,3.90
2017-04-23T02:17:12.004Z,3.90
2017-04-23T02:18:11.532Z,3.90
2017-04-23T02:19:11.531Z,3.90
2017-04-23T02:20:11.571Z,3.90
2017-04-23T02:21:10.865Z,3.90
2017-04-23T02:22:10.736Z,3.90
2017-04-23T02:23:11.420Z,3.90
2017-04-23T02:24:10.672Z,4.00
2017-04-23T02:25:10.182Z,4.00
2017-04-23T02:26:09.447Z,4.00
2017-04-23T02:27:08.733Z,4.00
2017-04-23T02:28:07.987Z,3.90
2017-04-23T02:29:07.279Z,3.90
2017-04-23T02:30:06.886Z,3.90
2017-04-23T02:31:06.355Z,3.90
2017-04-23T02:32:05.592Z,3.90
2017-04-23T02:33:05.676Z,3.90
2017-04-23T02:34:05.612Z,3.90
2017-04-23T02:35:04.904Z,3.90
2017-04-23T02:36:04.344Z,3.90
2017-04-23T02:37:04.328Z,3.90
2017-04-23T02:38:03.919Z,3.90
2017-04-23T02:39:03.232Z,3.90
2017-04-23T02:40:02.752Z,3.90
2017-04-23T02:41:02.339Z,3.90
2017-04-23T02:42:01.587Z,3.90
2017-04-23T02:43:00.846Z,3.90
2017-04-23T02:44:01.180Z,3.90
2017-04-23T02:45:00.463Z,3.90
2017-04-23T02:46:00.775Z,3.90
2017-04-23T02:47:01.090Z,3.90
2017-04-23T02:48:01.037Z,3.90
2017-04-23T02:49:00.935Z,3.90
2017-04-23T02:50:00.179Z,3.90
2017-04-23T02:51:00.484Z,3.90
2017-04-23T02:51:59.703Z,3.90
2017-04-23T02:52:59.263Z,3.90
2017-04-23T02:53:58.515Z,3.90
2017-04-23T02:54:57.739Z,3.90
2017-04-23T02:55:57.327Z,3.90
2017-04-23T02:56:56.544Z,3.90
2017-04-23T02:57:56.840Z,3.90
2017-04-23T02:58:56.459Z,3.90
2017-04-23T02:59:56.413Z,3.90
2017-04-23T03:00:55.920Z,3.80
2017-04-23T03:01:55.499Z,3.90
2017-04-23T03:02:55.364Z,3.80
2017-04-23T03:03:55.306Z,3.80
2017-04-23T03:04:54.516Z,3.80
2017-04-23T03:05:54.064Z,3.80
2017-04-23T03:06:53.524Z,3.80
2017-04-23T03:07:52.983Z,3.80
2017-04-23T03:08:52.197Z,3.80
2017-04-23T03:09:51.754Z,3.70
2017-04-23T03:10:51.567Z,3.70
2017-04-23T03:11:51.117Z,3.70
2017-04-23T03:12:50.664Z,3.70
2017-04-23T03:13:50.124Z,3.70
2017-04-23T03:14:50.089Z,3.70
2017-04-23T03:15:49.660Z,3.70
2017-04-23T03:16:49.218Z,3.80
2017-04-23T03:17:49.173Z,3.80
2017-04-23T03:18:48.384Z,3.80
2017-04-23T03:19:47.629Z,3.80
2017-04-23T03:20:46.831Z,3.80
2017-04-23T03:21:46.385Z,3.80
2017-04-23T03:22:45.622Z,3.70
2017-04-23T03:23:45.184Z,3.80
2017-04-23T03:24:45.483Z,3.80
2017-04-23T03:25:45.800Z,3.80
2017-04-23T03:26:45.776Z,3.80
2017-04-23T03:27:44.987Z,3.80
2017-04-23T03:28:44.208Z,3.80
2017-04-23T03:29:43.420Z,3.70
2017-04-23T03:30:43.324Z,3.80
2017-04-23T03:31:42.569Z,3.70
2017-04-23T03:32:42.740Z,3.70
2017-04-23T03:33:41.961Z,3.70
2017-04-23T03:34:41.176Z,3.70
2017-04-23T03:35:40.772Z,3.80
2017-04-23T03:36:39.992Z,3.70
2017-04-23T03:37:39.227Z,3.70
2017-04-23T03:38:39.520Z,3.70
2017-04-23T03:39:38.738Z,3.70
2017-04-23T03:40:38.715Z,3.70
2017-04-23T03:41:38.264Z,3.70
2017-04-23T03:42:37.595Z,3.70
2017-04-23T03:43:37.785Z,3.70
2017-04-23T03:44:36.996Z,3.70
2017-04-23T03:45:36.672Z,3.70
2017-04-23T03:46:35.916Z,3.70
2017-04-23T03:47:35.960Z,3.70
2017-04-23T03:48:35.564Z,3.70
2017-04-23T03:49:34.832Z,3.70
2017-04-23T03:50:34.080Z,3.70
2017-04-23T03:51:33.544Z,3.70
2017-04-23T03:52:33.128Z,3.70
2017-04-23T03:53:32.380Z,3.70
2017-04-23T03:54:31.620Z,3.70
2017-04-23T03:55:30.900Z,3.80
2017-04-23T03:56:30.135Z,3.70
2017-04-23T03:57:29.396Z,3.80
2017-04-23T03:58:29.052Z,3.80
2017-04-23T03:59:29.036Z,3.80
2017-04-23T04:00:28.311Z,3.80
2017-04-23T04:01:27.601Z,3.80
2017-04-23T04:02:26.840Z,3.80
2017-04-23T04:03:26.312Z,3.80
2017-04-23T04:04:26.653Z,3.80
2017-04-23T04:05:25.932Z,3.80
2017-04-23T04:06:25.924Z,3.80
2017-04-23T04:07:25.547Z,3.80
2017-04-23T04:08:24.798Z,3.90
2017-04-23T04:09:24.044Z,3.90
2017-04-23T04:10:23.400Z,3.90
2017-04-23T04:11:23.743Z,3.90
2017-04-23T04:12:23.004Z,3.90
2017-04-23T04:13:23.017Z,3.90
2017-04-23T04:14:23.343Z,3.90
2017-04-23T04:15:23.257Z,4.00
2017-04-23T04:16:22.532Z,3.90
2017-04-23T04:17:22.507Z,3.90
2017-04-23T04:18:21.754Z,4.00
2017-04-23T04:19:21.056Z,4.00
2017-04-23T04:20:21.663Z,4.00
2017-04-23T04:21:21.243Z,4.00
2017-04-23T04:22:21.079Z,4.00
2017-04-23T04:23:20.329Z,4.00
2017-04-23T04:24:20.328Z,3.90
2017-04-23T04:25:19.605Z,4.00
2017-04-23T04:26:18.849Z,4.00
2017-04-23T04:27:18.096Z,4.00
2017-04-23T04:28:18.075Z,4.00
2017-04-23T04:29:17.316Z,4.00
2017-04-23T04:30:16.560Z,4.00
2017-04-23T04:31:15.831Z,4.00
2017-04-23T04:32:15.076Z,4.00
2017-04-23T04:33:14.333Z,4.10
2017-04-23T04:34:13.563Z,4.10
2017-04-23T04:35:13.156Z,4.10
2017-04-23T04:36:12.387Z,4.10
2017-04-23T04:37:11.730Z,4.10
2017-04-23T04:38:11.716Z,4.10
2017-04-23T04:39:10.969Z,4.20
2017-04-23T04:40:10.951Z,4.20
2017-04-23T04:41:10.213Z,4.20
2017-04-23T04:42:10.201Z,4.10
2017-04-23T04:43:09.464Z,4.20
2017-04-23T04:44:08.695Z,4.20
2017-04-23T04:45:08.707Z,4.20
2017-04-23T04:46:08.699Z,4.20
2017-04-23T04:47:08.003Z,4.20
2017-04-23T04:48:07.987Z,4.20
2017-04-23T04:49:07.255Z,4.20
2017-04-23T04:50:07.247Z,4.20
2017-04-23T04:51:06.516Z,4.20
2017-04-23T04:52:05.781Z,4.20
2017-04-23T04:53:06.051Z,4.20
2017-04-23T04:54:05.572Z,4.20
2017-04-23T04:55:05.192Z,4.20
2017-04-23T04:56:05.180Z,4.20
2017-04-23T04:57:04.792Z,4.20
2017-04-23T04:58:05.126Z,4.30
2017-04-23T04:59:05.148Z,4.20
2017-04-23T05:00:05.416Z,4.30
2017-04-23T05:01:04.911Z,4.30
2017-04-23T05:02:04.155Z,4.30
2017-04-23T05:03:03.400Z,4.30
2017-04-23T05:04:02.646Z,4.30
2017-04-23T05:05:01.900Z,4.30
2017-04-23T05:06:01.312Z,4.30
2017-04-23T05:07:00.890Z,4.40
2017-04-23T05:08:00.132Z,4.40
2017-04-23T05:09:00.116Z,4.40
2017-04-23T05:09:59.367Z,4.40
2017-04-23T05:10:59.448Z,4.40
2017-04-23T05:11:58.710Z,4.50
2017-04-23T05:12:57.963Z,4.50
2017-04-23T05:13:57.968Z,4.40
2017-04-23T05:14:57.944Z,4.50
2017-04-23T05:15:57.180Z,4.60
2017-04-23T05:16:56.451Z,4.60
2017-04-23T05:17:56.464Z,4.60
2017-04-23T05:18:55.719Z,4.70
2017-04-23T05:19:55.324Z,4.70
2017-04-23T05:20:54.572Z,4.70
2017-04-23T05:21:54.136Z,4.80
2017-04-23T05:22:54.128Z,4.80
2017-04-23T05:23:54.132Z,4.80
2017-04-23T05:24:53.707Z,4.80
2017-04-23T05:25:52.956Z,4.80
2017-04-23T05:26:52.231Z,4.80
2017-04-23T05:27:51.476Z,4.90
2017-04-23T05:29:51.078Z,5.00
2017-04-23T05:30:50.336Z,5.10
2017-04-23T05:31:49.955Z,5.30
2017-04-23T05:32:49.192Z,5.60
2017-04-23T05:33:49.164Z,5.80
2017-04-23T05:34:48.400Z,6.00
2017-04-23T05:35:47.719Z,6.10
2017-04-23T05:36:46.947Z,5.90
2017-04-23T05:37:46.175Z,5.70
2017-04-23T05:38:45.420Z,5.60
2017-04-23T05:39:44.908Z,5.50
2017-04-23T05:40:44.488Z,5.30
2017-04-23T05:41:43.795Z,5.20
2017-04-23T05:42:43.165Z,5.20
2017-04-23T05:43:42.669Z,5.00
2017-04-23T05:44:42.675Z,4.90
2017-04-23T05:45:41.929Z,4.80
2017-04-23T05:46:41.508Z,4.80
2017-04-23T05:47:41.511Z,4.80
2017-04-23T05:48:41.765Z,4.80
2017-04-23T05:49:40.967Z,4.90
2017-04-23T05:50:40.524Z,4.80
2017-04-23T05:51:40.476Z,4.70
2017-04-23T05:52:40.020Z,4.80
2017-04-23T05:53:40.761Z,4.80
2017-04-23T05:54:39.959Z,4.90
2017-04-23T05:55:39.857Z,4.90
2017-04-23T05:56:39.062Z,5.10
2017-04-23T05:57:38.623Z,5.10
2017-04-23T05:58:38.924Z,5.00
2017-04-23T05:59:38.171Z,5.00
2017-04-23T06:00:37.418Z,5.00
2017-04-23T06:01:37.360Z,5.10
2017-04-23T06:02:36.558Z,5.20
2017-04-23T06:03:35.760Z,5.30
2017-04-23T06:04:35.312Z,5.50
2017-04-23T06:05:34.538Z,5.60
2017-04-23T06:06:33.740Z,5.90
2017-04-23T06:07:33.307Z,6.20
2017-04-23T06:08:32.508Z,6.60
2017-04-23T06:09:32.095Z,7.00
2017-04-23T06:10:31.301Z,6.90
2017-04-23T06:11:31.583Z,6.60
2017-04-23T06:12:31.083Z,6.30
2017-04-23T06:13:30.646Z,6.10
2017-04-23T06:14:30.600Z,6.30
2017-04-23T06:15:29.798Z,6.40
2017-04-23T06:16:29.343Z,6.20
2017-04-23T06:17:29.372Z,6.00
2017-04-23T06:18:28.701Z,5.90
2017-04-23T06:19:28.105Z,6.10
2017-04-23T06:20:27.663Z,6.70
2017-04-23T06:21:27.788Z,7.60
2017-04-23T06:22:27.363Z,8.60
2017-04-23T06:23:26.959Z,9.10
2017-04-23T06:24:26.533Z,8.60
2017-04-23T06:25:26.840Z,7.70
2017-04-23T06:26:26.778Z,7.00
2017-04-23T06:27:26.036Z,6.90
2017-04-23T06:28:26.341Z,6.90
2017-04-23T06:29:25.587Z,6.70
2017-04-23T06:30:25.488Z,6.60
2017-04-23T06:31:25.392Z,6.70
2017-04-23T06:32:24.664Z,6.60
2017-04-23T06:33:23.964Z,6.60
2017-04-23T06:34:23.878Z,6.70
2017-04-23T06:35:23.530Z,6.80
2017-04-23T06:36:23.834Z,6.80
2017-04-23T06:37:23.076Z,6.70
2017-04-23T06:38:22.680Z,6.60
2017-04-23T06:39:22.229Z,6.50
2017-04-23T06:40:22.483Z,6.20
2017-04-23T06:41:21.719Z,6.30
2017-04-23T06:42:20.960Z,6.20
2017-04-23T06:43:20.444Z,6.30
2017-04-23T06:44:19.643Z,6.30
2017-04-23T06:45:18.851Z,6.30
2017-04-23T06:46:18.103Z,6.40
2017-04-23T06:47:17.404Z,6.40
2017-04-23T06:48:16.652Z,6.40
2017-04-23T06:49:15.880Z,6.40
2017-04-23T06:50:15.110Z,6.30
2017-04-23T06:51:14.364Z,6.50
2017-04-23T06:52:13.622Z,6.50
2017-04-23T06:53:13.631Z,6.80
2017-04-23T06:54:12.898Z,7.40
2017-04-23T06:56:11.743Z,9.00
2017-04-23T06:57:10.999Z,10.00
2017-04-23T06:58:11.023Z,10.80
2017-04-23T06:59:10.320Z,10.40
2017-04-23T07:00:09.595Z,10.80
2017-04-23T07:01:09.602Z,11.00
2017-04-23T07:02:09.935Z,11.00
2017-04-23T07:03:09.556Z,11.10
2017-04-23T07:04:08.824Z,11.10
2017-04-23T07:05:08.447Z,11.30
2017-04-23T07:06:08.041Z,11.40
2017-04-23T07:07:07.329Z,10.90
2017-04-23T07:08:06.588Z,10.70
2017-04-23T07:09:06.245Z,11.00
2017-04-23T07:10:05.840Z,10.60
2017-04-23T07:11:05.147Z,10.40
2017-04-23T07:12:04.391Z,10.50
2017-04-23T07:13:03.744Z,10.40
2017-04-23T07:14:04.086Z,10.60
2017-04-23T07:15:03.688Z,10.60
2017-04-23T07:16:03.282Z,10.10
2017-04-23T07:17:02.569Z,9.90
2017-04-23T07:18:01.833Z,9.30
2017-04-23T07:19:02.780Z,8.90
2017-04-23T07:20:02.022Z,8.70
2017-04-23T07:21:01.555Z,8.40
2017-04-23T07:22:01.833Z,8.30
2017-04-23T07:23:01.096Z,8.00
2017-04-23T07:24:00.803Z,7.60
2017-04-23T07:25:00.053Z,7.50
2017-04-23T07:26:00.488Z,7.50
2017-04-23T07:27:00.020Z,7.70
2017-04-23T07:27:59.341Z,7.80
2017-04-23T07:28:58.836Z,7.90
2017-04-23T07:29:58.815Z,7.80
2017-04-23T07:30:58.331Z,7.80
2017-04-23T07:31:57.576Z,8.00
2017-04-23T07:32:56.821Z,8.00
2017-04-23T07:33:57.140Z,7.80
2017-04-23T07:34:56.771Z,7.80
2017-04-23T07:35:56.015Z,7.60
2017-04-23T07:36:55.254Z,7.60
2017-04-23T07:37:54.496Z,7.60
2017-04-23T07:38:54.487Z,7.70
2017-04-23T07:39:53.736Z,7.70
2017-04-23T07:40:53.003Z,7.70
2017-04-23T07:41:52.243Z,7.60
2017-04-23T07:42:51.615Z,7.60
2017-04-23T07:43:50.848Z,7.60
2017-04-23T07:44:50.081Z,7.80
2017-04-23T07:45:49.403Z,7.70
2017-04-23T07:46:49.372Z,7.60
2017-04-23T07:47:48.575Z,7.50
2017-04-23T07:48:47.783Z,7.50
2017-04-23T07:49:46.980Z,7.40
2017-04-23T07:50:46.923Z,7.20
2017-04-23T07:51:46.883Z,7.30
2017-04-23T07:52:46.102Z,7.10
2017-04-23T07:53:45.300Z,7.00
2017-04-23T07:54:45.087Z,7.10
2017-04-23T07:55:44.283Z,7.10
2017-04-23T07:56:43.543Z,7.30
2017-04-23T07:57:43.483Z,7.40
2017-04-23T07:58:43.464Z,7.50
2017-04-23T07:59:42.665Z,7.50
2017-04-23T08:00:41.859Z,7.30
2017-04-23T08:01:41.402Z,7.30
2017-04-23T08:02:40.601Z,7.40
2017-04-23T08:03:39.804Z,7.50
2017-04-23T08:04:39.384Z,7.50
2017-04-23T08:05:38.588Z,7.60
2017-04-23T08:06:38.167Z,7.70
2017-04-23T08:07:37.391Z,7.80
2017-04-23T08:08:36.948Z,7.70
2017-04-23T08:09:36.196Z,7.90
2017-04-23T08:10:36.184Z,7.80
2017-04-23T08:11:35.395Z,7.80
2017-04-23T08:12:35.331Z,7.60
2017-04-23T08:13:34.890Z,7.70
2017-04-23T08:14:34.100Z,7.80
2017-04-23T08:15:34.452Z,8.00
2017-04-23T08:16:33.692Z,8.10
2017-04-23T08:17:34.256Z,8.20
2017-04-23T08:18:33.680Z,8.20
2017-04-23T08:19:33.228Z,8.00
2017-04-23T08:20:32.426Z,8.10
2017-04-23T08:21:31.925Z,8.10
2017-04-23T08:22:31.174Z,7.90
2017-04-23T08:23:31.125Z,7.80
2017-04-23T08:24:30.339Z,7.70
2017-04-23T08:25:29.535Z,7.50
2017-04-23T08:26:29.100Z,7.40
2017-04-23T08:27:28.652Z,7.50
2017-04-23T08:28:27.879Z,7.60
2017-04-23T08:29:27.431Z,7.40
2017-04-23T08:30:27.743Z,7.50
2017-04-23T08:31:27.296Z,7.50
2017-04-23T08:32:26.500Z,7.40
2017-04-23T08:33:26.388Z,7.20
2017-04-23T08:34:25.611Z,7.20
2017-04-23T08:35:25.188Z,7.20
2017-04-23T08:36:24.408Z,7.20
2017-04-23T08:37:23.625Z,7.20
2017-04-23T08:38:22.829Z,7.20
2017-04-23T08:39:22.031Z,7.40
2017-04-23T08:40:21.240Z,7.60
2017-04-23T08:41:20.808Z,7.80
2017-04-23T08:42:20.368Z,8.20
2017-04-23T08:43:19.579Z,8.30
2017-04-23T08:44:19.133Z,8.40
2017-04-23T08:45:18.687Z,8.70
2017-04-23T08:46:17.913Z,8.80
2017-04-23T08:47:17.746Z,8.90
2017-04-23T08:48:18.052Z,8.70
2017-04-23T08:49:18.005Z,8.50
2017-04-23T08:50:17.892Z,8.60
2017-04-23T08:51:17.480Z,8.50
2017-04-23T08:52:16.689Z,8.30
2017-04-23T08:53:16.244Z,8.30
2017-04-23T08:54:16.205Z,8.40
2017-04-23T08:55:15.423Z,8.50
2017-04-23T08:56:15.904Z,8.50
2017-04-23T08:57:15.489Z,8.40
2017-04-23T08:58:14.693Z,8.40
2017-04-23T08:59:13.902Z,8.20
2017-04-23T09:00:13.440Z,8.00
2017-04-23T09:01:13.748Z,8.10
2017-04-23T09:02:14.052Z,8.10
2017-04-23T09:03:13.291Z,7.90
2017-04-23T09:04:12.503Z,7.80
2017-04-23T09:05:12.396Z,7.90
2017-04-23T09:06:11.976Z,7.90
2017-04-23T09:07:11.183Z,8.00
2017-04-23T09:08:10.408Z,8.00
2017-04-23T09:09:10.023Z,8.00
2017-04-23T09:10:09.975Z,8.10
2017-04-23T09:11:09.884Z,8.20
2017-04-23T09:12:09.132Z,8.10
2017-04-23T09:13:08.387Z,8.10
2017-04-23T09:14:07.941Z,8.00
2017-04-23T09:15:07.187Z,8.10
2017-04-23T09:16:07.475Z,8.10
2017-04-23T09:17:07.029Z,8.10
2017-04-23T09:18:06.249Z,8.10
2017-04-23T09:19:05.492Z,8.10
2017-04-23T09:20:06.132Z,8.00
2017-04-23T09:21:05.716Z,7.90
2017-04-23T09:22:05.611Z,7.70
2017-04-23T09:23:05.591Z,7.40
2017-04-23T09:24:04.791Z,7.30
2017-04-23T09:25:04.695Z,7.10
2017-04-23T09:26:04.587Z,7.10
2017-04-23T09:27:04.217Z,7.00
2017-04-23T09:28:03.453Z,7.00
2017-04-23T09:29:02.658Z,7.00
2017-04-23T09:30:01.896Z,7.00
2017-04-23T09:31:01.151Z,6.80
2017-04-23T09:32:00.375Z,6.80
2017-04-23T09:33:00.287Z,6.80
2017-04-23T09:33:59.495Z,6.80
2017-04-23T09:34:58.692Z,6.80
2017-04-23T09:35:58.248Z,6.70
2017-04-23T09:36:57.455Z,6.80
2017-04-23T09:37:56.705Z,6.70
2017-04-23T09:38:57.039Z,6.70
2017-04-23T09:39:56.252Z,6.80
2017-04-23T09:40:55.459Z,6.90
2017-04-23T09:41:55.408Z,7.00
2017-04-23T09:42:55.375Z,7.00
2017-04-23T09:43:54.907Z,6.90
2017-04-23T09:44:55.005Z,6.90
2017-04-23T09:45:54.328Z,6.90
2017-04-23T09:46:53.575Z,6.90
2017-04-23T09:47:52.834Z,6.80
2017-04-23T09:48:52.692Z,6.70
2017-04-23T09:49:52.668Z,6.60
2017-04-23T09:50:52.276Z,6.50
2017-04-23T09:51:51.761Z,6.30
2017-04-23T09:52:51.736Z,6.20
2017-04-23T09:53:51.031Z,6.20
2017-04-23T09:54:50.620Z,6.20
2017-04-23T09:55:49.875Z,5.90
2017-04-23T09:56:49.880Z,5.80
2017-04-23T09:57:49.859Z,5.70
2017-04-23T09:58:49.099Z,5.60
2017-04-23T09:59:49.460Z,5.60
2017-04-23T10:00:48.699Z,5.50
2017-04-23T10:01:48.743Z,5.60
2017-04-23T10:02:48.365Z,5.50
2017-04-23T10:03:48.277Z,5.50
2017-04-23T10:04:47.503Z,5.50
2017-04-23T10:05:47.086Z,5.40
2017-04-23T10:06:47.084Z,5.40
2017-04-23T10:07:47.558Z,5.40
2017-04-23T10:08:48.595Z,5.30
2017-04-23T10:09:47.820Z,5.30
2017-04-23T10:10:47.072Z,5.20
2017-04-23T10:11:46.662Z,5.10
2017-04-23T10:12:45.912Z,5.10
2017-04-23T10:13:45.900Z,5.00
2017-04-23T10:14:45.187Z,4.90
2017-04-23T10:15:44.428Z,4.90
2017-04-23T10:16:43.723Z,4.80
2017-04-23T10:17:42.960Z,4.90
2017-04-23T10:18:42.203Z,5.00
2017-04-23T10:19:41.438Z,5.20
2017-04-23T10:20:40.722Z,5.30
2017-04-23T10:21:39.960Z,5.40
2017-04-23T10:22:39.418Z,5.50
2017-04-23T10:23:39.387Z,5.60
2017-04-23T10:24:39.364Z,5.70
2017-04-23T10:25:38.596Z,5.90
2017-04-23T10:26:38.200Z,6.00
2017-04-23T10:27:37.452Z,6.10
2017-04-23T10:28:36.681Z,6.30
2017-04-23T10:29:35.907Z,6.70
2017-04-23T10:30:35.881Z,7.10
2017-04-23T10:31:35.152Z,7.60
2017-04-23T10:32:34.456Z,7.70
2017-04-23T10:33:34.145Z,7.70
2017-04-23T10:34:33.379Z,8.00
2017-04-23T10:35:32.615Z,8.30
2017-04-23T10:36:31.847Z,8.60
2017-04-23T10:37:31.826Z,9.00
2017-04-23T10:38:31.096Z,9.00
2017-04-23T10:39:30.371Z,9.30
2017-04-23T10:40:29.651Z,9.40
2017-04-23T10:41:29.195Z,9.40
2017-04-23T10:42:28.431Z,9.80
2017-04-23T10:43:27.672Z,10.40
2017-04-23T10:44:26.947Z,10.80
2017-04-23T10:45:26.415Z,11.10
2017-04-23T10:46:25.911Z,11.30
2017-04-23T10:47:25.138Z,11.20
2017-04-23T10:48:24.380Z,11.00
2017-04-23T10:49:23.655Z,10.60
2017-04-23T10:50:23.663Z,10.40
2017-04-23T10:51:22.995Z,10.50
2017-04-23T10:52:22.573Z,10.70
2017-04-23T10:53:21.808Z,10.60
2017-04-23T10:54:21.468Z,10.80
2017-04-23T10:55:20.931Z,11.10
2017-04-23T10:56:20.940Z,11.50
2017-04-23T10:57:20.936Z,11.80
2017-04-23T10:58:20.959Z,12.30
2017-04-23T10:59:20.265Z,12.60
2017-04-23T11:00:19.502Z,12.40
2017-04-23T11:01:18.744Z,11.80
2017-04-23T11:02:18.010Z,12.00
2017-04-23T11:03:17.996Z,11.90
2017-04-23T11:04:17.248Z,12.10
2017-04-23T11:05:16.502Z,12.00
2017-04-23T11:06:16.834Z,12.00
2017-04-23T11:07:16.108Z,12.00
2017-04-23T11:08:15.384Z,12.00
2017-04-23T11:09:15.355Z,11.80
2017-04-23T11:10:14.607Z,11.00
2017-04-23T11:11:13.863Z,10.60
2017-04-23T11:12:13.129Z,10.70
2017-04-23T11:13:12.711Z,10.70
2017-04-23T11:14:11.980Z,10.60
2017-04-23T11:15:11.560Z,10.80
2017-04-23T11:16:11.841Z,10.70
2017-04-23T11:17:11.076Z,10.50
2017-04-23T11:18:10.580Z,10.60
2017-04-23T11:19:09.816Z,10.70
2017-04-23T11:20:09.096Z,10.70
2017-04-23T11:21:08.348Z,10.60
2017-04-23T11:22:07.661Z,10.40
2017-04-23T11:23:06.907Z,10.10
2017-04-23T11:24:06.900Z,10.00
2017-04-23T11:25:07.227Z,9.90
2017-04-23T11:26:07.626Z,9.70
2017-04-23T11:27:07.379Z,9.30
2017-04-23T11:28:06.633Z,9.10
2017-04-23T11:29:06.632Z,8.80
2017-04-23T11:30:06.974Z,8.50
2017-04-23T11:31:06.489Z,8.10
2017-04-23T11:32:06.111Z,7.80
2017-04-23T11:33:05.371Z,7.70
2017-04-23T11:34:04.993Z,7.60
2017-04-23T11:35:04.584Z,7.40
2017-04-23T11:36:04.179Z,7.30
2017-04-23T11:37:03.772Z,7.30
2017-04-23T11:38:03.319Z,7.30
2017-04-23T11:39:04.572Z,7.30
2017-04-23T11:40:04.096Z,7.20
2017-04-23T11:41:03.330Z,6.90
2017-04-23T11:42:02.583Z,7.00
2017-04-23T11:43:02.164Z,6.80
2017-04-23T11:44:01.881Z,6.80
2017-04-23T11:45:01.119Z,6.80
2017-04-23T11:46:01.427Z,6.70
2017-04-23T11:47:01.391Z,6.60
2017-04-23T11:48:00.934Z,6.70
2017-04-23T11:51:58.945Z,6.30
2017-04-23T11:52:58.201Z,6.40
2017-04-23T11:53:58.165Z,6.50
2017-04-23T11:54:57.432Z,6.90
2017-04-23T11:55:56.696Z,7.40
2017-04-23T11:56:55.938Z,7.90
2017-04-23T11:57:55.180Z,8.50
2017-04-23T11:58:54.437Z,9.40
2017-04-23T11:59:53.684Z,9.90
2017-04-23T12:00:53.275Z,10.50
2017-04-23T12:01:52.520Z,11.10
2017-04-23T12:02:51.773Z,11.30
2017-04-23T12:03:51.401Z,11.20
2017-04-23T12:04:50.968Z,10.70
2017-04-23T12:05:50.201Z,10.60
2017-04-23T12:06:49.433Z,11.10
2017-04-23T12:07:48.696Z,11.10
2017-04-23T12:08:48.671Z,10.80
2017-04-23T12:09:47.933Z,11.00
2017-04-23T12:10:47.157Z,10.40
2017-04-23T12:11:46.384Z,10.00
2017-04-23T12:12:45.691Z,9.70
2017-04-23T12:13:45.588Z,9.30
2017-04-23T12:14:44.880Z,9.30
2017-04-23T12:15:44.162Z,9.40
2017-04-23T12:16:43.412Z,9.40
2017-04-23T12:17:42.660Z,9.40
2017-04-23T12:18:41.927Z,9.50
2017-04-23T12:19:41.156Z,9.20
2017-04-23T12:20:41.024Z,9.00
2017-04-23T12:21:40.700Z,9.10
2017-04-23T12:22:40.674Z,9.20
2017-04-23T12:23:39.913Z,9.40
2017-04-23T12:24:39.169Z,9.90
2017-04-23T12:25:38.437Z,10.50
2017-04-23T12:26:37.693Z,10.70
2017-04-23T12:27:37.171Z,10.80
2017-04-23T12:28:37.169Z,11.40
2017-04-23T12:29:37.519Z,11.90
2017-04-23T12:30:36.757Z,12.70
2017-04-23T12:31:35.986Z,12.90
2017-04-23T12:32:35.207Z,12.80
2017-04-23T12:33:34.473Z,13.30
2017-04-23T12:35:55.693Z,13.60
2017-04-23T12:36:55.297Z,12.90
2017-04-23T12:37:54.525Z,13.40
2017-04-23T12:38:54.452Z,14.40
2017-04-23T12:39:53.992Z,14.70
2017-04-23T12:40:53.904Z,15.10
2017-04-23T12:41:53.813Z,15.40
2017-04-23T12:42:54.081Z,15.70
2017-04-23T12:43:53.318Z,16.00
2017-04-23T12:44:53.594Z,16.60
2017-04-23T12:45:52.888Z,16.60
2017-04-23T12:46:52.145Z,16.10
2017-04-23T12:47:51.466Z,16.20
2017-04-23T12:48:51.041Z,15.60
2017-04-23T12:49:51.696Z,16.00
2017-04-23T12:50:51.356Z,15.50
2017-04-23T12:51:50.620Z,15.50
2017-04-23T12:52:50.885Z,14.90
2017-04-23T12:53:50.206Z,14.40
2017-04-23T12:54:49.448Z,14.20
2017-04-23T12:55:49.721Z,14.20
2017-04-23T12:56:49.785Z,13.90
2017-04-23T12:57:49.701Z,13.50
2017-04-23T12:58:49.402Z,13.50
2017-04-23T12:59:49.396Z,13.10
2017-04-23T13:00:49.746Z,13.00
2017-04-23T13:01:50.051Z,12.90
2017-04-23T13:02:50.313Z,12.80
2017-04-23T13:03:49.914Z,12.50
2017-04-23T13:04:49.137Z,12.10
2017-04-23T13:05:48.389Z,11.80
2017-04-23T13:06:49.439Z,11.60
2017-04-23T13:07:49.422Z,11.50
2017-04-23T13:08:49.035Z,11.30
2017-04-23T13:09:48.327Z,11.40
2017-04-23T13:10:47.589Z,11.50
2017-04-23T13:11:47.756Z,11.70
2017-04-23T13:12:47.014Z,11.90
2017-04-23T13:13:46.351Z,12.00
2017-04-23T13:14:46.775Z,12.00
2017-04-23T13:15:45.993Z,12.10